createdAt,value
2019-03-22T00:00:14.817Z,102415.62
2019-03-22T00:02:43.252Z,102412.96
2019-03-22T00:05:11.717Z,102414.41
2019-03-22T00:07:40.155Z,102412.16
2019-03-22T00:10:08.985Z,102408.48
2019-03-22T00:12:37.404Z,102409.57
2019-03-22T00:15:07.855Z,102404.00
2019-03-22T00:17:36.274Z,102413.03
2019-03-22T00:20:06.769Z,102404.00
2019-03-22T00:22:35.199Z,102409.97
2019-03-22T00:25:05.603Z,102412.81
2019-03-22T00:27:34.107Z,102411.80
2019-03-22T00:30:02.588Z,102416.56
2019-03-22T00:32:31.006Z,102415.24
2019-03-22T00:34:59.413Z,102413.97
2019-03-22T00:37:27.850Z,102407.59
2019-03-22T00:39:56.286Z,102410.30
2019-03-22T00:42:24.691Z,102407.92
2019-03-22T00:44:53.110Z,102402.34
2019-03-22T00:47:21.518Z,102400.85
2019-03-22T00:49:49.925Z,102402.27
2019-03-22T00:52:18.350Z,102400.60
2019-03-22T00:54:46.787Z,102398.45
2019-03-22T00:57:15.209Z,102400.05
2019-03-22T00:59:43.687Z,102397.83
2019-03-22T01:02:12.109Z,102398.23
2019-03-22T01:04:40.588Z,102399.80
2019-03-22T01:07:09.087Z,102400.29
2019-03-22T01:09:37.522Z,102401.27
2019-03-22T01:12:06.014Z,102398.86
2019-03-22T01:14:34.486Z,102397.20
2019-03-22T01:17:03.050Z,102397.50
2019-03-22T01:19:31.457Z,102398.06
2019-03-22T01:21:59.867Z,102404.17
2019-03-22T01:24:31.160Z,102398.12
2019-03-22T01:26:59.616Z,102398.29
2019-03-22T01:29:28.090Z,102393.67
2019-03-22T01:31:56.511Z,102397.41
2019-03-22T01:34:24.910Z,102397.66
2019-03-22T01:36:53.597Z,102397.06
2019-03-22T01:39:22.130Z,102401.76
2019-03-22T01:41:50.586Z,102403.23
2019-03-22T01:44:18.991Z,102395.67
2019-03-22T01:46:47.403Z,102399.81
2019-03-22T01:49:15.826Z,102401.72
2019-03-22T01:51:44.229Z,102398.30
2019-03-22T01:54:12.635Z,102400.80
2019-03-22T01:56:41.087Z,102401.16
2019-03-22T01:59:09.526Z,102393.20
2019-03-22T02:01:37.920Z,102395.91
2019-03-22T02:04:06.330Z,102399.81
2019-03-22T02:06:34.746Z,102394.80
2019-03-22T02:09:03.838Z,102383.83
2019-03-22T02:11:32.259Z,102388.00
2019-03-22T02:14:00.681Z,102388.63
2019-03-22T02:16:29.092Z,102387.05
2019-03-22T02:18:57.496Z,102391.06
2019-03-22T02:21:25.914Z,102390.11
2019-03-22T02:23:54.315Z,102387.01
2019-03-22T02:26:22.713Z,102384.77
2019-03-22T02:28:51.115Z,102379.33
2019-03-22T02:34:07.429Z,102383.83
2019-03-22T02:36:35.850Z,102378.14
2019-03-22T02:39:06.204Z,102384.09
2019-03-22T02:41:34.703Z,102381.47
2019-03-22T02:44:03.162Z,102377.48
2019-03-22T02:46:31.551Z,102369.30
2019-03-22T02:48:59.964Z,102370.34
2019-03-22T02:51:28.413Z,102372.64
2019-03-22T02:53:56.796Z,102370.02
2019-03-22T02:56:25.230Z,102368.27
2019-03-22T02:58:53.615Z,102368.36
2019-03-22T03:01:22.136Z,102365.66
2019-03-22T03:03:50.535Z,102364.02
2019-03-22T03:06:18.960Z,102364.61
2019-03-22T03:08:47.346Z,102355.64
2019-03-22T03:11:15.744Z,102354.39
2019-03-22T03:13:44.190Z,102357.45
2019-03-22T03:16:12.613Z,102357.62
2019-03-22T03:18:41.010Z,102352.55
2019-03-22T03:21:09.502Z,102357.97
2019-03-22T03:23:37.983Z,102351.68
2019-03-22T03:26:06.529Z,102347.92
2019-03-22T03:28:37.233Z,102346.45
2019-03-22T03:31:05.157Z,102347.62
2019-03-22T03:33:35.644Z,102348.97
2019-03-22T03:36:03.910Z,102345.80
2019-03-22T03:38:32.405Z,102345.66
2019-03-22T03:41:00.807Z,102354.16
2019-03-22T03:43:29.227Z,102351.36
2019-03-22T03:45:57.630Z,102354.70
2019-03-22T03:48:26.060Z,102348.80
2019-03-22T03:50:54.487Z,102340.89
2019-03-22T03:53:22.929Z,102349.78
2019-03-22T03:55:51.396Z,102349.08
2019-03-22T03:58:19.830Z,102347.47
2019-03-22T04:00:48.242Z,102351.34
2019-03-22T04:03:16.646Z,102350.38
2019-03-22T04:05:45.068Z,102356.27
2019-03-22T04:08:13.472Z,102358.95
2019-03-22T04:10:41.886Z,102347.52
2019-03-22T04:13:10.281Z,102356.25
2019-03-22T04:15:38.718Z,102354.70
2019-03-22T04:18:07.119Z,102355.01
2019-03-22T04:20:35.565Z,102355.32
2019-03-22T04:23:04.033Z,102353.57
2019-03-22T04:25:32.541Z,102351.53
2019-03-22T04:28:00.977Z,102357.07
2019-03-22T04:30:29.403Z,102356.14
2019-03-22T04:32:57.849Z,102356.03
2019-03-22T04:35:26.227Z,102354.84
2019-03-22T04:37:54.619Z,102346.36
2019-03-22T04:40:32.085Z,102343.48
2019-03-22T04:43:00.511Z,102348.17
2019-03-22T04:45:31.561Z,102344.81
2019-03-22T04:48:08.798Z,102341.48
2019-03-22T04:50:40.522Z,102344.67
2019-03-22T04:53:11.978Z,102347.30
2019-03-22T04:55:43.584Z,102345.72
2019-03-22T04:58:14.437Z,102341.42
2019-03-22T05:00:43.670Z,102336.09
2019-03-22T05:03:13.435Z,102341.66
2019-03-22T05:05:42.988Z,102347.78
2019-03-22T05:08:11.534Z,102346.91
2019-03-22T05:10:40.397Z,102346.82
2019-03-22T05:13:11.515Z,102348.01
2019-03-22T05:15:40.765Z,102341.17
2019-03-22T05:18:09.525Z,102337.30
2019-03-22T05:20:39.974Z,102336.87
2019-03-22T05:23:09.617Z,102347.69
2019-03-22T05:25:38.673Z,102353.16
2019-03-22T05:28:09.534Z,102355.44
2019-03-22T05:31:05.204Z,102349.09
2019-03-22T05:33:33.591Z,102346.64
2019-03-22T05:36:02.034Z,102342.73
2019-03-22T05:38:30.449Z,102343.56
2019-03-22T05:40:58.870Z,102343.22
2019-03-22T05:43:27.430Z,102340.75
2019-03-22T05:45:55.919Z,102339.66
2019-03-22T05:48:24.333Z,102339.83
2019-03-22T05:50:52.741Z,102334.64
2019-03-22T05:53:21.232Z,102334.11
2019-03-22T05:55:49.647Z,102339.53
2019-03-22T05:58:18.260Z,102344.03
2019-03-22T06:00:46.665Z,102344.05
2019-03-22T06:03:15.163Z,102350.95
2019-03-22T06:05:43.583Z,102355.81
2019-03-22T06:08:12.091Z,102360.64
2019-03-22T06:10:40.529Z,102364.71
2019-03-22T06:13:08.937Z,102361.82
2019-03-22T06:15:37.432Z,102366.33
2019-03-22T06:18:05.873Z,102359.80
2019-03-22T06:20:34.298Z,102361.21
2019-03-22T06:23:02.690Z,102361.47
2019-03-22T06:25:31.123Z,102363.86
2019-03-22T06:27:59.524Z,102364.91
2019-03-22T06:30:27.936Z,102366.48
2019-03-22T06:32:56.376Z,102369.33
2019-03-22T06:35:24.842Z,102369.33
2019-03-22T06:37:53.270Z,102374.09
2019-03-22T06:40:21.748Z,102377.12
2019-03-22T06:42:50.153Z,102376.64
2019-03-22T06:45:18.558Z,102377.20
2019-03-22T06:47:46.990Z,102376.81
2019-03-22T06:50:15.469Z,102373.09
2019-03-22T06:52:43.914Z,102380.80
2019-03-22T06:55:12.462Z,102385.83
2019-03-22T06:57:40.950Z,102393.44
2019-03-22T07:00:12.054Z,102386.94
2019-03-22T07:02:40.431Z,102393.16
2019-03-22T07:05:08.940Z,102394.58
2019-03-22T07:07:37.347Z,102398.81
2019-03-22T07:10:06.987Z,102399.80
2019-03-22T07:12:35.483Z,102395.28
2019-03-22T07:15:06.173Z,102403.55
2019-03-22T07:17:34.670Z,102404.91
2019-03-22T07:20:03.249Z,102407.45
2019-03-22T07:22:31.677Z,102407.45
2019-03-22T07:25:00.266Z,102411.33
2019-03-22T07:27:28.789Z,102403.86
2019-03-22T07:29:57.243Z,102399.11
2019-03-22T07:32:25.658Z,102401.50
2019-03-22T07:34:54.234Z,102401.02
2019-03-22T07:37:22.657Z,102403.50
2019-03-22T07:39:51.093Z,102405.12
2019-03-22T07:42:19.508Z,102406.56
2019-03-22T07:44:47.910Z,102403.39
2019-03-22T07:47:16.366Z,102407.84
2019-03-22T07:49:44.767Z,102404.27
2019-03-22T07:52:13.201Z,102400.64
2019-03-22T07:54:41.695Z,102397.38
2019-03-22T07:57:10.135Z,102399.69
2019-03-22T07:59:38.548Z,102403.75
2019-03-22T08:02:08.000Z,102404.41
2019-03-22T08:04:36.446Z,102403.78
2019-03-22T08:07:04.907Z,102405.69
2019-03-22T08:09:33.339Z,102409.34
2019-03-22T08:12:02.174Z,102404.99
2019-03-22T08:14:30.567Z,102405.39
2019-03-22T08:16:58.991Z,102404.13
2019-03-22T08:19:27.444Z,102400.63
2019-03-22T08:21:55.817Z,102401.80
2019-03-22T08:24:24.253Z,102404.36
2019-03-22T08:26:52.664Z,102408.89
2019-03-22T08:29:21.077Z,102401.15
2019-03-22T08:31:49.569Z,102402.50
2019-03-22T08:34:17.976Z,102400.47
2019-03-22T08:36:46.410Z,102393.98
2019-03-22T08:39:14.807Z,102398.41
2019-03-22T08:41:43.232Z,102389.21
2019-03-22T08:44:11.640Z,102384.12
2019-03-22T08:46:40.041Z,102385.39
2019-03-22T08:49:09.637Z,102383.72
2019-03-22T08:51:38.200Z,102379.48
2019-03-22T08:54:06.692Z,102381.00
2019-03-22T08:56:36.235Z,102373.14
2019-03-22T08:59:04.827Z,102373.14
2019-03-22T09:01:33.231Z,102370.34
2019-03-22T09:04:01.636Z,102370.02
2019-03-22T09:06:30.183Z,102369.08
2019-03-22T09:08:58.552Z,102367.40
2019-03-22T09:11:27.013Z,102357.36
2019-03-22T09:13:55.605Z,102353.83
2019-03-22T09:16:24.102Z,102350.94
2019-03-22T09:18:52.539Z,102346.87
2019-03-22T09:21:20.926Z,102347.27
2019-03-22T09:23:49.500Z,102346.73
2019-03-22T09:26:19.988Z,102346.10
2019-03-22T09:28:48.115Z,102342.86
2019-03-22T09:31:16.576Z,102345.63
2019-03-22T09:33:44.994Z,102342.09
2019-03-22T09:36:13.539Z,102335.56
2019-03-22T09:38:41.936Z,102331.89
2019-03-22T09:41:12.538Z,102334.23
2019-03-22T09:43:40.960Z,102327.41
2019-03-22T09:46:09.443Z,102334.91
2019-03-22T09:48:37.922Z,102330.38
2019-03-22T09:51:06.290Z,102326.19
2019-03-22T09:53:34.720Z,102323.93
2019-03-22T09:56:03.251Z,102317.39
2019-03-22T09:58:31.676Z,102316.00
2019-03-22T10:01:00.195Z,102316.52
2019-03-22T10:03:28.575Z,102310.96
2019-03-22T10:05:57.009Z,102308.05
2019-03-22T10:08:25.448Z,102300.77
2019-03-22T10:10:53.902Z,102298.22
2019-03-22T10:13:22.293Z,102289.02
2019-03-22T10:15:50.814Z,102289.66
2019-03-22T10:18:19.193Z,102282.10
2019-03-22T10:20:47.650Z,102279.27
2019-03-22T10:23:16.052Z,102279.88
2019-03-22T10:25:44.588Z,102278.91
2019-03-22T10:28:13.003Z,102266.77
2019-03-22T10:30:41.429Z,102265.14
2019-03-22T10:33:22.077Z,102266.27
2019-03-22T10:35:40.067Z,102259.08
2019-03-22T10:38:15.956Z,102258.59
2019-03-22T10:40:38.662Z,102264.63
2019-03-22T10:43:07.080Z,102260.16
2019-03-22T10:45:35.553Z,102259.82
2019-03-22T10:48:04.011Z,102253.74
2019-03-22T10:50:32.459Z,102250.52
2019-03-22T10:53:00.914Z,102251.56
2019-03-22T10:55:30.702Z,102247.84
2019-03-22T10:57:59.417Z,102244.47
2019-03-22T11:00:28.223Z,102240.53
2019-03-22T11:02:56.644Z,102234.68
2019-03-22T11:05:25.093Z,102234.37
2019-03-22T11:07:54.457Z,102233.27
2019-03-22T11:10:22.859Z,102224.30
2019-03-22T11:12:51.297Z,102221.81
2019-03-22T11:15:19.705Z,102217.05
2019-03-22T11:17:48.145Z,102222.59
2019-03-22T11:20:17.269Z,102218.73
2019-03-22T11:22:45.762Z,102220.73
2019-03-22T11:25:14.293Z,102216.91
2019-03-22T11:27:42.716Z,102217.51
2019-03-22T11:30:14.456Z,102210.39
2019-03-22T11:32:42.880Z,102205.55
2019-03-22T11:35:12.326Z,102197.36
2019-03-22T11:37:40.792Z,102193.58
2019-03-22T11:40:11.665Z,102187.23
2019-03-22T11:42:40.073Z,102182.99
2019-03-22T11:45:17.429Z,102187.03
2019-03-22T11:47:45.845Z,102174.00
2019-03-22T11:50:14.509Z,102169.74
2019-03-22T11:52:42.922Z,102171.02
2019-03-22T11:55:13.275Z,102159.61
2019-03-22T11:57:41.681Z,102156.97
2019-03-22T12:00:16.228Z,102151.30
2019-03-22T12:02:44.699Z,102147.71
2019-03-22T12:05:13.979Z,102147.28
2019-03-22T12:07:42.374Z,102139.91
2019-03-22T12:10:13.335Z,102139.47
2019-03-22T12:12:41.760Z,102128.16
2019-03-22T12:15:12.725Z,102127.56
2019-03-22T12:17:41.218Z,102123.05
2019-03-22T12:20:15.966Z,102120.73
2019-03-22T12:22:44.486Z,102112.94
2019-03-22T12:25:16.098Z,102109.24
2019-03-22T12:27:44.625Z,102104.17
2019-03-22T12:30:17.501Z,102092.33
2019-03-22T12:32:46.430Z,102099.48
2019-03-22T12:35:16.868Z,102097.16
2019-03-22T12:37:45.529Z,102096.73
2019-03-22T12:40:22.355Z,102083.50
2019-03-22T12:42:50.921Z,102079.59
2019-03-22T12:45:29.940Z,102070.63
2019-03-22T12:47:58.415Z,102064.63
2019-03-22T12:50:27.386Z,102064.47
2019-03-22T12:52:55.946Z,102058.56
2019-03-22T12:55:24.503Z,102061.87
2019-03-22T12:57:52.990Z,102017.98
2019-03-22T13:00:27.436Z,102043.53
2019-03-22T13:02:57.211Z,102041.46
2019-03-22T13:05:25.763Z,102036.78
2019-03-22T13:07:54.262Z,102040.23
2019-03-22T13:10:27.680Z,102035.88
2019-03-22T13:12:56.185Z,102031.97
2019-03-22T13:15:24.694Z,102019.82
2019-03-22T13:17:53.144Z,102016.70
2019-03-22T13:20:21.717Z,102019.69
2019-03-22T13:22:50.142Z,102013.91
2019-03-22T13:25:21.020Z,102012.05
2019-03-22T13:27:48.869Z,102005.94
2019-03-22T13:30:35.362Z,101999.80
2019-03-22T13:33:04.633Z,101997.17
2019-03-22T13:35:33.065Z,101994.48
2019-03-22T13:38:01.736Z,101994.42
2019-03-22T13:40:30.233Z,101994.83
2019-03-22T13:42:58.724Z,101986.00
2019-03-22T13:45:27.198Z,101988.29
2019-03-22T13:47:55.713Z,101977.23
2019-03-22T13:50:24.666Z,101973.14
2019-03-22T13:52:53.081Z,101971.00
2019-03-22T13:55:21.578Z,101970.56
2019-03-22T13:57:49.983Z,101960.30
2019-03-22T14:00:19.169Z,101956.02
2019-03-22T14:02:47.561Z,101953.36
2019-03-22T14:05:16.033Z,101947.97
2019-03-22T14:07:44.472Z,101950.13
2019-03-22T14:10:21.810Z,101945.81
2019-03-22T14:12:50.258Z,101946.77
2019-03-22T14:15:18.643Z,101949.27
2019-03-22T14:17:47.062Z,101945.75
2019-03-22T14:20:15.481Z,101940.77
2019-03-22T14:22:43.907Z,101937.28
2019-03-22T14:25:12.382Z,101938.19
2019-03-22T14:27:40.797Z,101933.38
2019-03-22T14:30:09.773Z,101931.30
2019-03-22T14:32:38.328Z,101934.13
2019-03-22T14:35:09.503Z,101928.53
2019-03-22T14:37:38.006Z,101919.88
2019-03-22T14:40:07.038Z,101914.39
2019-03-22T14:42:35.522Z,101918.02
2019-03-22T14:45:11.315Z,101918.84
2019-03-22T14:47:39.730Z,101912.86
2019-03-22T14:50:08.502Z,101910.05
2019-03-22T14:52:36.974Z,101905.48
2019-03-22T14:55:06.825Z,101905.64
2019-03-22T14:57:35.308Z,101905.25
2019-03-22T15:00:08.419Z,101900.95
2019-03-22T15:02:36.833Z,101898.50
2019-03-22T15:05:06.710Z,101899.45
2019-03-22T15:07:35.105Z,101896.00
2019-03-22T15:10:04.780Z,101897.78
2019-03-22T15:12:33.198Z,101893.46
2019-03-22T15:15:21.449Z,101885.66
2019-03-22T15:17:57.139Z,101890.92
2019-03-22T15:20:30.220Z,101887.49
2019-03-22T15:23:15.289Z,101881.41
2019-03-22T15:25:45.365Z,101874.54
2019-03-22T15:28:15.449Z,101881.88
2019-03-22T15:30:45.535Z,101878.41
2019-03-22T15:33:34.321Z,101872.89
2019-03-22T15:35:59.628Z,101873.75
2019-03-22T15:38:47.708Z,101868.61
2019-03-22T15:41:16.356Z,101870.33
2019-03-22T15:43:44.790Z,101866.86
2019-03-22T15:46:13.265Z,101861.63
2019-03-22T15:48:41.664Z,101863.45
2019-03-22T15:51:10.096Z,101867.36
2019-03-22T15:53:38.522Z,101860.44
2019-03-22T15:56:06.948Z,101856.98
2019-03-22T15:58:37.027Z,101858.27
2019-03-22T16:01:05.581Z,101863.47
2019-03-22T16:03:43.815Z,101857.42
2019-03-22T16:06:04.197Z,101856.56
2019-03-22T16:08:32.699Z,101853.95
2019-03-22T16:11:01.108Z,101855.74
2019-03-22T16:13:29.544Z,101858.38
2019-03-22T16:15:58.040Z,101854.02
2019-03-22T16:18:26.440Z,101849.73
2019-03-22T16:20:59.957Z,101853.19
2019-03-22T16:23:25.005Z,101856.69
2019-03-22T16:25:53.427Z,101851.97
2019-03-22T16:28:21.857Z,101853.27
2019-03-22T16:30:50.262Z,101855.05
2019-03-22T16:33:18.684Z,101849.02
2019-03-22T16:35:47.118Z,101850.76
2019-03-22T16:38:15.603Z,101852.06
2019-03-22T16:40:44.101Z,101849.50
2019-03-22T16:43:12.720Z,101847.37
2019-03-22T16:45:42.659Z,101848.23
2019-03-22T16:48:11.237Z,101844.80
2019-03-22T16:50:39.825Z,101848.29
2019-03-22T16:53:08.413Z,101839.68
2019-03-22T16:55:36.924Z,101844.90
2019-03-22T16:58:05.870Z,101844.50
2019-03-22T17:00:34.949Z,101840.61
2019-03-22T17:03:03.611Z,101836.75
2019-03-22T17:05:32.039Z,101844.92
2019-03-22T17:08:00.506Z,101844.93
2019-03-22T17:10:29.004Z,101842.36
2019-03-22T17:12:57.469Z,101848.41
2019-03-22T17:15:25.921Z,101841.50
2019-03-22T17:17:54.375Z,101842.34
2019-03-22T17:20:22.828Z,101845.77
2019-03-22T17:22:51.225Z,101847.50
2019-03-22T17:25:19.651Z,101847.47
2019-03-22T17:27:48.186Z,101849.16
2019-03-22T17:30:18.272Z,101846.09
2019-03-22T17:32:46.787Z,101841.30
2019-03-22T17:35:15.333Z,101847.76
2019-03-22T17:37:43.872Z,101841.67
2019-03-22T17:40:12.249Z,101842.93
2019-03-22T17:42:40.657Z,101847.61
2019-03-22T17:45:15.640Z,101844.57
2019-03-22T17:47:44.092Z,101840.63
2019-03-22T17:50:13.972Z,101840.61
2019-03-22T17:52:42.622Z,101840.55
2019-03-22T17:55:12.099Z,101839.66
2019-03-22T17:57:40.616Z,101843.52
2019-03-22T18:00:12.071Z,101850.34
2019-03-22T18:02:40.507Z,101850.70
2019-03-22T18:05:09.738Z,101852.82
2019-03-22T18:07:38.273Z,101848.43
2019-03-22T18:10:11.062Z,101852.69
2019-03-22T18:12:39.618Z,101856.46
2019-03-22T18:15:09.979Z,101864.58
2019-03-22T18:17:38.462Z,101866.64
2019-03-22T18:20:09.930Z,101868.74
2019-03-22T18:22:38.430Z,101866.06
2019-03-22T18:25:09.143Z,101874.62
2019-03-22T18:27:37.528Z,101869.41
2019-03-22T18:30:08.287Z,101879.64
2019-03-22T18:32:36.714Z,101870.55
2019-03-22T18:35:05.783Z,101870.94
2019-03-22T18:37:34.264Z,101872.15
2019-03-22T18:40:02.659Z,101874.27
2019-03-22T18:42:31.389Z,101880.66
2019-03-22T18:44:59.861Z,101880.98
2019-03-22T18:47:28.294Z,101881.34
2019-03-22T18:49:56.715Z,101882.13
2019-03-22T18:52:25.254Z,101882.38
2019-03-22T18:54:53.663Z,101882.13
2019-03-22T18:57:25.245Z,101886.88
2019-03-22T18:59:53.649Z,101895.37
2019-03-22T19:02:22.058Z,101900.27
2019-03-22T19:04:50.459Z,101899.27
2019-03-22T19:07:18.887Z,101902.00
2019-03-22T19:09:47.312Z,101899.30
2019-03-22T19:12:15.755Z,101894.09
2019-03-22T19:14:44.467Z,101894.88
2019-03-22T19:17:12.864Z,101894.81
2019-03-22T19:19:41.292Z,101894.53
2019-03-22T19:22:09.720Z,101893.50
2019-03-22T19:24:38.130Z,101898.88
2019-03-22T19:27:06.619Z,101892.25
2019-03-22T19:29:35.129Z,101898.78
2019-03-22T19:32:13.152Z,101888.14
2019-03-22T19:34:33.849Z,101893.97
2019-03-22T19:37:02.266Z,101892.91
2019-03-22T19:39:30.786Z,101891.83
2019-03-22T19:41:59.181Z,101890.39
2019-03-22T19:44:27.720Z,101896.18
2019-03-22T19:46:56.285Z,101896.50
2019-03-22T19:49:24.703Z,101893.74
2019-03-22T19:51:53.201Z,101901.45
2019-03-22T19:54:21.614Z,101900.42
2019-03-22T19:56:50.062Z,101898.84
2019-03-22T19:59:18.537Z,101898.63
2019-03-22T20:01:46.968Z,101895.59
2019-03-22T20:04:15.379Z,101900.66
2019-03-22T20:06:43.879Z,101904.16
2019-03-22T20:09:12.406Z,101898.58
2019-03-22T20:11:40.941Z,101905.48
2019-03-22T20:14:09.417Z,101908.42
2019-03-22T20:16:37.837Z,101909.49
2019-03-22T20:19:06.254Z,101909.94
2019-03-22T20:21:34.875Z,101913.86
2019-03-22T20:24:03.285Z,101908.66
2019-03-22T20:26:31.711Z,101910.16
2019-03-22T20:29:00.142Z,101908.34
2019-03-22T20:31:28.556Z,101909.00
2019-03-22T20:33:57.036Z,101903.03
2019-03-22T20:36:25.442Z,101903.42
2019-03-22T20:38:53.853Z,101898.09
2019-03-22T20:41:22.277Z,101901.22
2019-03-22T20:43:50.700Z,101897.12
2019-03-22T20:46:19.122Z,101896.11
2019-03-22T20:48:47.550Z,101891.80
2019-03-22T20:51:15.964Z,101891.84
2019-03-22T20:53:44.473Z,101886.98
2019-03-22T20:56:12.880Z,101887.88
2019-03-22T20:58:41.299Z,101889.80
2019-03-22T21:01:09.813Z,101886.67
2019-03-22T21:03:38.222Z,101887.80
2019-03-22T21:06:06.768Z,101888.30
2019-03-22T21:08:35.268Z,101883.25
2019-03-22T21:11:03.785Z,101880.34
2019-03-22T21:13:32.155Z,101880.98
2019-03-22T21:16:00.648Z,101883.51
2019-03-22T21:18:29.060Z,101884.67
2019-03-22T21:20:57.500Z,101883.83
2019-03-22T21:23:35.759Z,101880.16
2019-03-22T21:25:56.078Z,101885.26
2019-03-22T21:28:24.518Z,101881.33
2019-03-22T21:30:52.937Z,101885.58
2019-03-22T21:33:21.347Z,101875.42
2019-03-22T21:35:49.754Z,101887.39
2019-03-22T21:38:18.150Z,101887.69
2019-03-22T21:40:46.597Z,101892.52
2019-03-22T21:43:14.997Z,101894.97
2019-03-22T21:45:43.447Z,101895.70
2019-03-22T21:48:11.837Z,101894.73
2019-03-22T21:50:40.288Z,101889.63
2019-03-22T21:53:08.702Z,101891.08
2019-03-22T21:55:37.413Z,101892.91
2019-03-22T21:58:05.809Z,101895.02
2019-03-22T22:00:34.249Z,101896.12
2019-03-22T22:03:02.674Z,101895.43
2019-03-22T22:05:31.080Z,101894.63
2019-03-22T22:07:59.522Z,101907.30
2019-03-22T22:10:27.919Z,101906.77
2019-03-22T22:12:56.372Z,101907.52
2019-03-22T22:15:24.810Z,101904.95
2019-03-22T22:17:53.185Z,101905.23
2019-03-22T22:20:28.927Z,101905.36
2019-03-22T22:22:51.828Z,101905.45
2019-03-22T22:25:20.233Z,101907.91
2019-03-22T22:27:48.644Z,101909.51
2019-03-22T22:30:17.147Z,101904.39
2019-03-22T22:32:45.569Z,101908.13
2019-03-22T22:35:14.648Z,101898.01
2019-03-22T22:37:43.141Z,101897.80
2019-03-22T22:40:12.894Z,101892.68
2019-03-22T22:42:41.373Z,101898.66
2019-03-22T22:45:13.116Z,101900.18
2019-03-22T22:47:41.560Z,101903.08
2019-03-22T22:50:13.131Z,101906.06
2019-03-22T22:52:41.536Z,101906.02
2019-03-22T22:55:10.408Z,101904.27
2019-03-22T22:57:38.824Z,101904.32
2019-03-22T23:00:10.269Z,101904.18
2019-03-22T23:02:38.689Z,101908.92
2019-03-22T23:05:07.167Z,101916.94
2019-03-22T23:07:35.700Z,101913.12
2019-03-22T23:10:05.867Z,101913.73
2019-03-22T23:12:34.456Z,101918.94
2019-03-22T23:15:03.151Z,101909.58
2019-03-22T23:17:31.535Z,101919.47
2019-03-22T23:19:59.967Z,101918.41
2019-03-22T23:22:28.383Z,101921.86
2019-03-22T23:24:56.853Z,101918.35
2019-03-22T23:27:25.342Z,101923.56
2019-03-22T23:29:53.736Z,101917.48
2019-03-22T23:32:22.174Z,101922.61
2019-03-22T23:34:58.679Z,101926.06
2019-03-22T23:37:20.732Z,101929.45
2019-03-22T23:39:49.176Z,101936.60
2019-03-22T23:42:17.572Z,101928.58
2019-03-22T23:44:45.995Z,101931.70
2019-03-22T23:47:14.474Z,101928.34
2019-03-22T23:49:42.944Z,101930.89
2019-03-22T23:52:11.355Z,101935.11
2019-03-22T23:54:39.779Z,101941.25
2019-03-22T23:57:08.266Z,101929.18
2019-03-22T23:59:36.696Z,101934.34
